createdAt,value
2022-08-08T00:01:17.693Z,102087.53
2022-08-08T00:03:55.814Z,102085.84
2022-08-08T00:06:36.543Z,102082.19
2022-08-08T00:09:12.160Z,102091.38
2022-08-08T00:12:08.000Z,102088.53
2022-08-08T00:14:58.986Z,102091.44
2022-08-08T00:18:01.861Z,102093.63
2022-08-08T00:20:36.157Z,102093.50
2022-08-08T00:23:09.108Z,102085.94
2022-08-08T00:25:46.188Z,102088.25
2022-08-08T00:28:34.512Z,102090.53
2022-08-08T00:32:15.167Z,102084.13
2022-08-08T00:34:27.087Z,102083.19
2022-08-08T00:37:03.761Z,102091.00
2022-08-08T00:41:12.009Z,102099.03
2022-08-08T00:43:11.841Z,102090.53
2022-08-08T00:46:16.222Z,102087.66
2022-08-08T00:49:22.001Z,102086.41
2022-08-08T00:52:04.860Z,102088.72
2022-08-08T00:55:11.305Z,102084.56
2022-08-08T00:58:21.751Z,102088.34
2022-08-08T01:01:09.725Z,102090.75
2022-08-08T01:04:15.339Z,102087.53
2022-08-08T01:07:55.801Z,102095.34
2022-08-08T01:11:06.546Z,102097.19
2022-08-08T01:14:05.476Z,102100.28
2022-08-08T01:17:52.140Z,102095.75
2022-08-08T01:21:07.470Z,102099.66
2022-08-08T01:24:13.738Z,102098.13
2022-08-08T01:27:32.830Z,102092.53
2022-08-08T01:30:53.635Z,102098.13
2022-08-08T01:34:01.110Z,102093.19
2022-08-08T01:37:17.581Z,102089.72
2022-08-08T01:40:14.693Z,102087.09
2022-08-08T01:42:52.138Z,102088.38
2022-08-08T01:45:42.211Z,102087.66
2022-08-08T01:48:30.292Z,102085.56
2022-08-08T01:51:17.174Z,102087.63
2022-08-08T01:55:19.690Z,102084.41
2022-08-08T01:57:20.867Z,102091.53
2022-08-08T02:00:12.918Z,102090.56
2022-08-08T02:03:07.165Z,102092.88
2022-08-08T02:05:56.645Z,102100.66
2022-08-08T02:08:39.942Z,102089.41
2022-08-08T02:11:58.608Z,102089.25
2022-08-08T02:14:34.712Z,102092.34
2022-08-08T02:17:26.845Z,102092.19
2022-08-08T02:20:16.114Z,102090.13
2022-08-08T02:23:16.425Z,102092.75
2022-08-08T02:25:50.667Z,102087.94
2022-08-08T02:28:35.319Z,102083.09
2022-08-08T02:31:43.648Z,102084.53
2022-08-08T02:34:08.240Z,102084.44
2022-08-08T02:36:47.445Z,102086.69
2022-08-08T02:40:00.181Z,102080.28
2022-08-08T02:44:11.568Z,102082.06
2022-08-08T02:46:13.376Z,102081.13
2022-08-08T02:49:47.431Z,102091.53
2022-08-08T02:52:39.400Z,102084.28
2022-08-08T02:55:31.835Z,102084.94
2022-08-08T02:58:35.444Z,102088.34
2022-08-08T03:01:47.550Z,102084.69
2022-08-08T03:05:17.244Z,102086.00
2022-08-08T03:08:27.957Z,102088.28
2022-08-08T03:12:01.340Z,102089.72
2022-08-08T03:15:56.572Z,102094.44
2022-08-08T03:17:39.623Z,102093.28
2022-08-08T03:20:10.252Z,102094.13
2022-08-08T03:22:47.085Z,102099.28
2022-08-08T03:25:18.849Z,102100.88
2022-08-08T03:27:56.859Z,102103.63
2022-08-08T03:30:26.336Z,102106.22
2022-08-08T03:33:56.115Z,102106.09
2022-08-08T03:36:00.367Z,102106.75
2022-08-08T03:38:57.829Z,102108.38
2022-08-08T03:42:12.930Z,102102.88
2022-08-08T03:44:06.756Z,102107.56
2022-08-08T03:46:47.088Z,102113.38
2022-08-08T03:49:56.764Z,102118.88
2022-08-08T03:52:08.169Z,102109.69
2022-08-08T03:55:01.824Z,102116.31
2022-08-08T03:58:33.247Z,102120.19
2022-08-08T04:00:21.726Z,102130.38
2022-08-08T04:02:59.605Z,102129.09
2022-08-08T04:05:30.369Z,102135.44
2022-08-08T04:08:00.565Z,102135.63
2022-08-08T04:10:31.987Z,102142.41
2022-08-08T04:13:00.892Z,102139.53
2022-08-08T04:15:55.088Z,102139.06
2022-08-08T04:18:34.979Z,102140.97
2022-08-08T04:21:07.733Z,102145.97
2022-08-08T04:24:12.289Z,102139.53
2022-08-08T04:26:25.793Z,102145.66
2022-08-08T04:28:54.500Z,102145.53
2022-08-08T04:31:57.230Z,102147.78
2022-08-08T04:34:10.387Z,102142.16
2022-08-08T04:36:38.250Z,102138.94
2022-08-08T04:40:03.601Z,102143.63
2022-08-08T04:41:55.889Z,102141.19
2022-08-08T04:44:23.824Z,102142.66
2022-08-08T04:46:55.149Z,102144.13
2022-08-08T04:49:29.039Z,102139.72
2022-08-08T04:52:14.307Z,102147.50
2022-08-08T04:54:42.688Z,102145.41
2022-08-08T04:57:12.196Z,102143.00
2022-08-08T04:59:41.815Z,102151.53
2022-08-08T05:02:10.802Z,102154.28
2022-08-08T05:04:42.217Z,102146.06
2022-08-08T05:07:15.117Z,102147.66
2022-08-08T05:09:43.489Z,102153.00
2022-08-08T05:12:21.155Z,102153.00
2022-08-08T05:14:49.285Z,102155.28
2022-08-08T05:17:20.251Z,102161.41
2022-08-08T05:20:12.463Z,102166.06
2022-08-08T05:22:37.677Z,102158.19
2022-08-08T05:25:06.102Z,102170.63
2022-08-08T05:27:41.360Z,102178.84
2022-08-08T05:30:13.008Z,102171.72
2022-08-08T05:32:41.261Z,102168.50
2022-08-08T05:35:13.583Z,102168.66
2022-08-08T05:37:52.790Z,102172.88
2022-08-08T05:40:28.141Z,102169.31
2022-08-08T05:43:02.755Z,102179.50
2022-08-08T05:45:43.133Z,102178.69
2022-08-08T05:48:28.604Z,102172.53
2022-08-08T05:51:14.834Z,102174.16
2022-08-08T05:54:24.582Z,102180.78
2022-08-08T05:56:38.649Z,102179.63
2022-08-08T05:59:58.764Z,102175.13
2022-08-08T06:02:28.179Z,102179.31
2022-08-08T06:05:06.937Z,102181.41
2022-08-08T06:07:53.292Z,102176.38
2022-08-08T06:10:33.567Z,102182.66
2022-08-08T06:13:02.758Z,102177.81
2022-08-08T06:15:51.284Z,102193.13
2022-08-08T06:18:24.007Z,102190.69
2022-08-08T06:20:57.330Z,102193.75
2022-08-08T06:23:48.816Z,102193.22
2022-08-08T06:26:44.802Z,102202.91
2022-08-08T06:29:26.866Z,102202.06
2022-08-08T06:32:09.785Z,102201.25
2022-08-08T06:34:40.788Z,102203.28
2022-08-08T06:37:25.002Z,102201.44
2022-08-08T06:39:57.997Z,102194.38
2022-08-08T06:42:32.143Z,102196.66
2022-08-08T06:45:01.307Z,102196.56
2022-08-08T06:47:58.088Z,102192.22
2022-08-08T06:50:32.092Z,102183.81
2022-08-08T06:53:13.950Z,102191.44
2022-08-08T06:55:46.914Z,102194.31
2022-08-08T06:58:15.273Z,102201.00
2022-08-08T07:00:50.318Z,102197.50
2022-08-08T07:03:52.475Z,102196.38
2022-08-08T07:06:19.698Z,102200.88
2022-08-08T07:08:49.480Z,102204.84
2022-08-08T07:11:22.371Z,102208.69
2022-08-08T07:14:00.737Z,102198.25
2022-08-08T07:16:51.274Z,102200.28
2022-08-08T07:19:34.374Z,102206.75
2022-08-08T07:22:11.840Z,102217.25
2022-08-08T07:24:53.021Z,102216.28
2022-08-08T07:27:35.121Z,102223.72
2022-08-08T07:30:21.184Z,102214.63
2022-08-08T07:32:54.680Z,102216.13
2022-08-08T07:35:30.739Z,102219.22
2022-08-08T07:38:04.541Z,102213.31
2022-08-08T07:40:40.109Z,102212.72
2022-08-08T07:43:09.289Z,102214.59
2022-08-08T07:46:05.757Z,102220.06
2022-08-08T07:48:29.610Z,102213.59
2022-08-08T07:51:01.012Z,102224.22
2022-08-08T07:54:02.367Z,102219.31
2022-08-08T07:56:35.426Z,102219.91
2022-08-08T07:59:08.741Z,102228.22
2022-08-08T08:02:35.147Z,102227.69
2022-08-08T08:04:39.947Z,102221.34
2022-08-08T08:07:11.838Z,102228.69
2022-08-08T08:09:42.362Z,102222.44
2022-08-08T08:12:31.954Z,102223.78
2022-08-08T08:15:05.116Z,102222.03
2022-08-08T08:17:47.938Z,102229.31
2022-08-08T08:20:19.295Z,102228.63
2022-08-08T08:22:50.498Z,102231.75
2022-08-08T08:25:19.409Z,102233.00
2022-08-08T08:28:09.462Z,102228.72
2022-08-08T08:30:41.292Z,102226.69
2022-08-08T08:33:14.082Z,102228.31
2022-08-08T08:36:17.921Z,102227.25
2022-08-08T08:38:31.720Z,102218.63
2022-08-08T08:41:00.153Z,102216.72
2022-08-08T08:43:29.292Z,102215.56
2022-08-08T08:45:58.421Z,102226.72
2022-08-08T08:48:32.864Z,102222.72
2022-08-08T08:51:03.442Z,102218.78
2022-08-08T08:53:59.073Z,102214.84
2022-08-08T08:56:28.473Z,102215.66
2022-08-08T08:58:58.568Z,102220.03
2022-08-08T09:01:34.350Z,102219.66
2022-08-08T09:04:30.338Z,102221.22
2022-08-08T09:07:00.289Z,102224.41
2022-08-08T09:09:38.979Z,102213.66
2022-08-08T09:12:20.075Z,102225.19
2022-08-08T09:14:50.141Z,102224.38
2022-08-08T09:17:31.518Z,102222.00
2022-08-08T09:21:57.056Z,102223.59
2022-08-08T09:22:59.137Z,102216.00
2022-08-08T09:25:36.104Z,102217.53
2022-08-08T09:28:30.761Z,102219.88
2022-08-08T09:31:12.662Z,102214.63
2022-08-08T09:34:06.218Z,102211.28
2022-08-08T09:36:35.966Z,102211.28
2022-08-08T09:39:15.443Z,102218.78
2022-08-08T09:42:19.983Z,102230.25
2022-08-08T09:45:07.949Z,102221.72
2022-08-08T09:48:09.458Z,102217.28
2022-08-08T09:50:28.159Z,102217.28
2022-08-08T09:53:05.565Z,102210.06
2022-08-08T09:56:03.490Z,102207.50
2022-08-08T09:58:40.714Z,102204.66
2022-08-08T10:01:15.350Z,102208.94
2022-08-08T10:04:02.197Z,102208.50
2022-08-08T10:06:35.702Z,102215.53
2022-08-08T10:09:05.352Z,102214.28
2022-08-08T10:12:26.755Z,102211.31
2022-08-08T10:14:38.242Z,102215.41
2022-08-08T10:17:56.854Z,102209.63
2022-08-08T10:20:00.212Z,102192.75
2022-08-08T10:22:32.035Z,102203.09
2022-08-08T10:25:04.837Z,102210.66
2022-08-08T10:27:42.066Z,102203.25
2022-08-08T10:30:16.532Z,102196.47
2022-08-08T10:33:02.401Z,102201.97
2022-08-08T10:36:20.721Z,102206.72
2022-08-08T10:38:21.336Z,102199.63
2022-08-08T10:40:53.253Z,102204.41
2022-08-08T10:43:23.013Z,102200.59
2022-08-08T10:45:56.194Z,102197.41
2022-08-08T10:48:36.141Z,102195.56
2022-08-08T10:51:13.181Z,102187.44
2022-08-08T10:53:58.843Z,102183.81
2022-08-08T10:56:34.852Z,102188.34
2022-08-08T10:59:08.114Z,102181.81
2022-08-08T11:01:39.634Z,102183.81
2022-08-08T11:04:12.044Z,102195.22
2022-08-08T11:06:41.356Z,102183.25
2022-08-08T11:09:21.237Z,102186.91
2022-08-08T11:12:04.770Z,102186.75
2022-08-08T11:14:50.180Z,102184.53
2022-08-08T11:18:00.663Z,102181.75
2022-08-08T11:20:13.402Z,102175.47
2022-08-08T11:22:42.544Z,102175.09
2022-08-08T11:25:14.560Z,102171.97
2022-08-08T11:27:48.909Z,102170.69
2022-08-08T11:30:23.978Z,102181.84
2022-08-08T11:33:04.955Z,102173.81
2022-08-08T11:35:42.498Z,102165.47
2022-08-08T11:38:35.258Z,102163.13
2022-08-08T11:41:03.845Z,102164.84
2022-08-08T11:43:39.526Z,102172.22
2022-08-08T11:46:14.018Z,102170.41
2022-08-08T11:48:49.914Z,102162.13
2022-08-08T11:51:38.035Z,102165.28
2022-08-08T11:54:27.272Z,102167.66
2022-08-08T11:56:58.231Z,102171.41
2022-08-08T12:00:00.789Z,102160.19
2022-08-08T12:02:32.678Z,102174.47
2022-08-08T12:05:07.846Z,102158.09
2022-08-08T12:07:51.890Z,102160.34
2022-08-08T12:10:23.292Z,102157.28
2022-08-08T12:13:00.911Z,102161.69
2022-08-08T12:15:40.020Z,102161.84
2022-08-08T12:18:18.030Z,102155.16
2022-08-08T12:20:53.176Z,102152.38
2022-08-08T12:23:43.752Z,102150.75
2022-08-08T12:26:28.314Z,102153.41
2022-08-08T12:29:19.888Z,102154.50
2022-08-08T12:32:00.754Z,102155.28
2022-08-08T12:34:36.749Z,102145.19
2022-08-08T12:37:08.355Z,102149.22
2022-08-08T12:40:00.096Z,102161.44
2022-08-08T12:42:26.470Z,102154.25
2022-08-08T12:45:53.672Z,102157.06
2022-08-08T12:48:09.835Z,102154.38
2022-08-08T12:50:48.414Z,102156.16
2022-08-08T12:53:29.988Z,102152.41
2022-08-08T12:56:19.590Z,102145.72
2022-08-08T12:58:54.155Z,102155.13
2022-08-08T13:01:34.993Z,102147.66
2022-08-08T13:04:19.217Z,102149.28
2022-08-08T13:07:00.597Z,102142.41
2022-08-08T13:09:43.012Z,102146.25
2022-08-08T13:12:32.968Z,102149.34
2022-08-08T13:15:03.613Z,102150.09
2022-08-08T13:18:07.754Z,102144.34
2022-08-08T13:20:22.004Z,102137.69
2022-08-08T13:22:51.606Z,102141.19
2022-08-08T13:25:28.972Z,102131.28
2022-08-08T13:28:00.532Z,102126.47
2022-08-08T13:30:29.343Z,102131.00
2022-08-08T13:32:58.624Z,102124.97
2022-08-08T13:35:38.382Z,102128.16
2022-08-08T13:38:13.072Z,102121.41
2022-08-08T13:40:44.928Z,102124.25
2022-08-08T13:43:13.880Z,102121.59
2022-08-08T13:45:47.692Z,102122.38
2022-08-08T13:48:17.481Z,102119.81
2022-08-08T13:50:57.543Z,102116.63
2022-08-08T13:53:28.141Z,102119.81
2022-08-08T13:56:10.909Z,102121.13
2022-08-08T13:58:56.510Z,102120.97
2022-08-08T14:01:32.787Z,102124.94
2022-08-08T14:04:23.149Z,102115.34
2022-08-08T14:06:59.502Z,102121.31
2022-08-08T14:10:04.506Z,102108.97
2022-08-08T14:12:28.049Z,102107.16
2022-08-08T14:14:56.486Z,102111.56
2022-08-08T14:17:58.184Z,102110.03
2022-08-08T14:20:15.647Z,102109.59
2022-08-08T14:23:10.506Z,102114.31
2022-08-08T14:25:54.214Z,102106.97
2022-08-08T14:28:29.195Z,102106.78
2022-08-08T14:31:09.237Z,102110.50
2022-08-08T14:33:39.085Z,102111.88
2022-08-08T14:36:13.236Z,102114.31
2022-08-08T14:38:52.580Z,102112.06
2022-08-08T14:41:45.246Z,102109.19
2022-08-08T14:44:21.116Z,102115.09
2022-08-08T14:47:01.044Z,102107.00
2022-08-08T14:49:37.940Z,102097.44
2022-08-08T14:52:23.737Z,102097.44
2022-08-08T14:54:51.857Z,102105.22
2022-08-08T14:57:20.780Z,102104.19
2022-08-08T15:00:11.887Z,102105.66
2022-08-08T15:03:14.250Z,102102.84
2022-08-08T15:05:42.620Z,102104.53
2022-08-08T15:08:22.142Z,102093.44
2022-08-08T15:11:01.389Z,102095.72
2022-08-08T15:13:39.641Z,102102.31
2022-08-08T15:16:11.825Z,102108.75
2022-08-08T15:18:44.033Z,102102.84
2022-08-08T15:21:17.982Z,102099.59
2022-08-08T15:23:51.140Z,102107.22
2022-08-08T15:26:19.760Z,102097.03
2022-08-08T15:28:51.003Z,102101.88
2022-08-08T15:31:55.934Z,102107.28
2022-08-08T15:34:18.343Z,102110.91
2022-08-08T15:36:57.266Z,102105.44
2022-08-08T15:39:25.671Z,102095.81
2022-08-08T15:41:53.908Z,102100.69
2022-08-08T15:44:22.238Z,102100.47
2022-08-08T15:46:51.446Z,102099.69
2022-08-08T15:49:21.116Z,102093.03
2022-08-08T15:51:54.286Z,102096.22
2022-08-08T15:54:38.077Z,102091.78
2022-08-08T15:57:08.872Z,102091.78
2022-08-08T16:00:05.782Z,102089.25
2022-08-08T16:02:30.475Z,102091.41
2022-08-08T16:04:59.765Z,102093.91
2022-08-08T16:07:51.777Z,102092.16
2022-08-08T16:13:11.270Z,102087.47
2022-08-08T16:13:32.494Z,102079.19
2022-08-08T16:15:57.322Z,102090.56
2022-08-08T16:18:27.160Z,102087.09
2022-08-08T16:21:00.019Z,102081.72
2022-08-08T16:23:32.179Z,102074.44
2022-08-08T16:26:04.409Z,102081.63
2022-08-08T16:28:35.473Z,102081.53
2022-08-08T16:31:07.552Z,102077.06
2022-08-08T16:33:40.211Z,102075.66
2022-08-08T16:36:09.823Z,102069.44
2022-08-08T16:38:46.477Z,102072.31
2022-08-08T16:41:22.768Z,102080.63
2022-08-08T16:43:52.243Z,102075.31
2022-08-08T16:46:36.629Z,102080.22
2022-08-08T16:49:10.624Z,102080.31
2022-08-08T16:55:01.831Z,102075.22
2022-08-08T16:55:05.349Z,102084.06
2022-08-08T16:57:43.547Z,102083.72
2022-08-08T17:00:08.997Z,102089.78
2022-08-08T17:02:39.756Z,102077.78
2022-08-08T17:05:13.662Z,102083.63
2022-08-08T17:07:42.226Z,102090.13
2022-08-08T17:10:11.529Z,102097.53
2022-08-08T17:12:41.509Z,102094.44
2022-08-08T17:15:17.402Z,102083.31
2022-08-08T17:18:02.443Z,102080.56
2022-08-08T17:20:33.675Z,102092.22
2022-08-08T17:23:18.115Z,102088.28
2022-08-08T17:25:56.511Z,102086.78
2022-08-08T17:28:34.468Z,102101.19
2022-08-08T17:31:39.405Z,102103.72
2022-08-08T17:34:35.920Z,102104.63
2022-08-08T17:36:47.944Z,102109.41
2022-08-08T17:40:05.173Z,102115.88
2022-08-08T17:42:18.137Z,102107.06
2022-08-08T17:44:46.374Z,102110.28
2022-08-08T17:47:23.783Z,102109.50
2022-08-08T17:50:05.695Z,102119.06
2022-08-08T17:52:37.634Z,102114.69
2022-08-08T17:56:04.663Z,102119.91
2022-08-08T17:57:59.532Z,102123.88
2022-08-08T18:00:30.697Z,102128.72
2022-08-08T18:03:07.610Z,102122.78
2022-08-08T18:05:48.223Z,102130.38
2022-08-08T18:08:24.690Z,102130.38
2022-08-08T18:11:08.486Z,102122.41
2022-08-08T18:13:41.698Z,102122.41
2022-08-08T18:16:11.340Z,102129.59
2022-08-08T18:18:42.827Z,102128.00
2022-08-08T18:21:35.371Z,102129.59
2022-08-08T18:24:03.929Z,102128.81
2022-08-08T18:26:33.485Z,102134.34
2022-08-08T18:29:02.681Z,102131.16
2022-08-08T18:31:34.071Z,102135.53
2022-08-08T18:34:11.631Z,102133.09
2022-08-08T18:36:50.407Z,102135.88
2022-08-08T18:39:28.775Z,102150.59
2022-08-08T18:42:02.861Z,102145.38
2022-08-08T18:44:33.114Z,102148.53
2022-08-08T18:47:05.036Z,102158.84
2022-08-08T18:49:54.872Z,102152.50
2022-08-08T18:52:23.382Z,102156.44
2022-08-08T18:55:00.167Z,102161.56
2022-08-08T18:57:41.319Z,102169.09
2022-08-08T19:00:16.732Z,102172.13
2022-08-08T19:02:55.576Z,102182.84
2022-08-08T19:05:30.554Z,102181.72
2022-08-08T19:08:03.054Z,102187.31
2022-08-08T19:10:33.472Z,102198.41
2022-08-08T19:13:03.045Z,102199.19
2022-08-08T19:15:33.794Z,102203.22
2022-08-08T19:18:32.979Z,102197.66
2022-08-08T19:20:50.812Z,102199.22
2022-08-08T19:23:21.716Z,102203.19
2022-08-08T19:26:20.036Z,102199.97
2022-08-08T19:28:41.712Z,102209.50
2022-08-08T19:31:13.031Z,102216.63
2022-08-08T19:34:05.133Z,102215.38
2022-08-08T19:36:33.528Z,102221.28
2022-08-08T19:39:01.420Z,102223.22
2022-08-08T19:41:33.594Z,102240.69
2022-08-08T19:44:02.887Z,102236.66
2022-08-08T19:46:33.585Z,102233.84
2022-08-08T19:49:02.978Z,102239.66
2022-08-08T19:51:34.092Z,102236.00
2022-08-08T19:54:03.033Z,102238.34
2022-08-08T19:56:39.882Z,102233.16
2022-08-08T19:59:12.898Z,102242.44
2022-08-08T20:02:01.911Z,102251.09
2022-08-08T20:04:29.712Z,102246.56
2022-08-08T20:06:57.774Z,102247.97
2022-08-08T20:09:30.064Z,102245.50
2022-08-08T20:12:02.385Z,102248.88
2022-08-08T20:14:34.080Z,102243.63
2022-08-08T20:17:03.435Z,102249.94
2022-08-08T20:19:34.257Z,102248.22
2022-08-08T20:22:04.829Z,102252.88
2022-08-08T20:24:40.944Z,102258.38
2022-08-08T20:27:10.173Z,102259.88
2022-08-08T20:30:00.409Z,102258.28
2022-08-08T20:32:30.002Z,102259.75
2022-08-08T20:35:02.205Z,102261.31
2022-08-08T20:37:46.960Z,102256.47
2022-08-08T20:40:33.502Z,102267.28
2022-08-08T20:43:16.483Z,102260.88
2022-08-08T20:45:57.883Z,102261.66
2022-08-08T20:48:31.795Z,102269.50
2022-08-08T20:50:59.679Z,102268.41
2022-08-08T20:54:00.757Z,102268.69
2022-08-08T20:56:16.619Z,102274.38
2022-08-08T20:58:47.879Z,102272.47
2022-08-08T21:01:20.308Z,102270.13
2022-08-08T21:03:55.064Z,102273.66
2022-08-08T21:06:53.383Z,102274.75
2022-08-08T21:09:16.304Z,102278.50
2022-08-08T21:11:53.473Z,102274.28
2022-08-08T21:14:34.556Z,102277.22
2022-08-08T21:17:03.159Z,102277.56
2022-08-08T21:19:45.284Z,102278.03
2022-08-08T21:22:15.276Z,102275.63
2022-08-08T21:24:53.020Z,102278.66
2022-08-08T21:27:38.865Z,102275.31
2022-08-08T21:30:19.343Z,102284.63
2022-08-08T21:32:52.059Z,102279.84
2022-08-08T21:36:17.367Z,102286.41
2022-08-08T21:38:17.018Z,102283.19
2022-08-08T21:40:54.842Z,102284.34
2022-08-08T21:43:23.159Z,102290.63
2022-08-08T21:48:06.010Z,102284.03
2022-08-08T21:48:44.523Z,102281.56
2022-08-08T21:51:13.336Z,102284.47
2022-08-08T21:54:27.269Z,102287.97
2022-08-08T21:56:38.025Z,102296.16
2022-08-08T21:59:10.688Z,102287.88
2022-08-08T22:01:44.649Z,102296.59
2022-08-08T22:04:20.354Z,102285.09
2022-08-08T22:06:48.444Z,102296.97
2022-08-08T22:09:17.588Z,102295.81
2022-08-08T22:11:59.588Z,102297.41
2022-08-08T22:14:32.789Z,102299.47
2022-08-08T22:17:01.997Z,102301.81
2022-08-08T22:19:30.713Z,102301.81
2022-08-08T22:22:18.376Z,102304.91
2022-08-08T22:24:46.485Z,102308.78
2022-08-08T22:27:15.824Z,102313.38
2022-08-08T22:30:04.162Z,102311.34
2022-08-08T22:32:33.754Z,102324.28
2022-08-08T22:35:03.744Z,102316.72
2022-08-08T22:37:53.654Z,102315.13
2022-08-08T22:40:20.878Z,102321.72
2022-08-08T22:42:49.534Z,102319.22
2022-08-08T22:45:17.774Z,102322.59
2022-08-08T22:47:51.919Z,102318.06
2022-08-08T22:50:25.798Z,102322.72
2022-08-08T22:54:19.570Z,102318.13
2022-08-08T22:55:58.453Z,102322.34
2022-08-08T22:58:30.876Z,102329.31
2022-08-08T23:01:00.551Z,102323.59
2022-08-08T23:03:30.493Z,102329.81
2022-08-08T23:06:18.345Z,102327.31
2022-08-08T23:08:55.575Z,102324.78
2022-08-08T23:11:30.905Z,102332.16
2022-08-08T23:14:17.242Z,102336.31
2022-08-08T23:16:48.239Z,102323.66
2022-08-08T23:19:30.787Z,102329.91
2022-08-08T23:22:01.144Z,102319.56
2022-08-08T23:24:36.638Z,102324.63
2022-08-08T23:27:10.220Z,102329.28
2022-08-08T23:29:38.411Z,102326.41
2022-08-08T23:32:10.388Z,102328.72
2022-08-08T23:34:49.601Z,102336.44
2022-08-08T23:38:01.548Z,102329.13
2022-08-08T23:40:15.753Z,102329.59
2022-08-08T23:42:45.111Z,102336.19
2022-08-08T23:45:13.076Z,102328.25
2022-08-08T23:49:03.135Z,102336.53
2022-08-08T23:50:31.285Z,102341.34
2022-08-08T23:53:03.578Z,102339.63
2022-08-08T23:55:33.720Z,102342.75
2022-08-08T23:58:09.883Z,102332.41
